Time;durP1;ratioP1;P1;durP2;ratioP2;P2;SDS_P1;SDS_P2;PMS_P1;PMS_P2;Temp;Humidity;BMP_temperature;BMP_pressure;BME280_temperature;BME280_humidity;BME280_pressure;Samples;Min_cycle;Max_cycle;Signal;HPM_P1;HPM_P2
2022/08/04 00:00:07;;;;;;;0.10;0.10;;;;;;;23.03;55.67;100925.22;5129121;27;20143;-40
2022/08/04 00:02:46;;;;;;;0.10;0.10;;;;;;;23.03;55.72;100926.03;5124518;27;20074;-39
2022/08/04 00:05:26;;;;;;;0.10;0.10;;;;;;;23.03;55.70;100925.22;5141970;27;20074;-40
2022/08/04 00:08:13;;;;;;;0.10;0.10;;;;;;;23.03;55.80;100922.44;5142243;27;20129;-40
2022/08/04 00:10:39;;;;;;;0.10;0.10;;;;;;;23.03;55.75;100911.34;5119632;27;20473;-42
2022/08/04 00:13:06;;;;;;;0.10;0.10;;;;;;;23.02;55.72;100913.28;5143806;27;20371;-41
2022/08/04 00:15:33;;;;;;;0.10;0.10;;;;;;;23.03;55.76;100917.72;5140521;27;20067;-41
2022/08/04 00:18:03;;;;;;;0.10;0.10;;;;;;;23.02;55.88;100924.41;5141788;27;20134;-41
2022/08/04 00:20:32;;;;;;;0.10;0.10;;;;;;;23.03;55.63;100914.94;5121659;27;20125;-41
2022/08/04 00:23:00;;;;;;;0.10;0.10;;;;;;;23.03;55.80;100920.47;5127844;27;20150;-42
2022/08/04 00:25:26;;;;;;;0.10;0.10;;;;;;;23.03;55.79;100914.94;5141939;27;20449;-41
2022/08/04 00:27:52;;;;;;;0.10;0.10;;;;;;;23.03;55.80;100916.88;5141529;27;20062;-39
2022/08/04 00:30:18;;;;;;;0.10;0.10;;;;;;;23.02;55.69;100915.25;5128175;27;20424;-41
2022/08/04 00:32:44;;;;;;;0.10;0.10;;;;;;;23.03;55.67;100906.59;5139361;27;20051;-41
2022/08/04 00:35:12;;;;;;;0.10;0.10;;;;;;;23.03;55.63;100906.59;5137917;27;20042;-41
2022/08/04 00:37:38;;;;;;;;;;;;;;;23.03;55.63;100895.50;5143552;27;20093;-41
2022/08/04 00:40:22;;;;;;;0.10;0.10;;;;;;;23.02;55.81;100893.84;5139742;27;20281;-41
2022/08/04 00:42:53;;;;;;;0.10;0.10;;;;;;;23.02;55.73;100893.03;5125684;27;20081;-40
2022/08/04 00:46:04;;;;;;;0.10;0.10;;;;;;;23.02;55.72;100893.84;5123036;27;20115;-42
2022/08/04 00:48:55;;;;;;;0.10;0.10;;;;;;;23.03;55.71;100886.34;5129400;27;20049;-41
2022/08/04 00:52:00;;;;;;;0.10;0.10;;;;;;;23.03;55.87;100887.16;5140991;27;20067;-41
2022/08/04 00:55:10;;;;;;;0.10;0.10;;;;;;;23.04;55.76;100887.97;5109098;27;20046;-41
2022/08/04 00:57:51;;;;;;;0.10;0.10;;;;;;;23.03;55.61;100881.59;5140451;27;20108;-40
2022/08/04 01:00:17;;;;;;;0.10;0.10;;;;;;;23.03;55.75;100881.59;5140477;27;20070;-39
2022/08/04 01:03:23;;;;;;;0.10;0.10;;;;;;;23.03;55.72;100881.59;5137485;27;20528;-40
2022/08/04 01:06:00;;;;;;;0.10;0.10;;;;;;;23.04;55.66;100882.41;5114061;27;20063;-40
2022/08/04 01:08:34;;;;;;;0.10;0.10;;;;;;;23.03;55.59;100876.03;5145430;27;20130;-41
2022/08/04 01:11:31;;;;;;;0.10;0.10;;;;;;;23.03;55.80;100878.81;5141389;27;20120;-41
2022/08/04 01:14:36;;;;;;;0.10;0.10;;;;;;;23.03;55.64;100878.00;5131528;27;20086;-42
2022/08/04 01:17:38;;;;;;;0.10;0.10;;;;;;;23.02;55.79;100866.06;5114447;27;20183;-42
2022/08/04 01:20:06;;;;;;;0.10;0.10;;;;;;;23.03;55.82;100873.25;5130175;27;20141;-41
2022/08/04 01:22:40;;;;;;;0.10;0.10;;;;;;;23.02;55.77;100866.06;5124218;27;20079;-41
2022/08/04 01:25:27;;;;;;;0.10;0.10;;;;;;;23.03;55.79;100866.91;5138460;27;20477;-41
2022/08/04 01:28:22;;;;;;;0.10;0.10;;;;;;;23.04;55.79;100860.19;5130073;27;20085;-41
2022/08/04 01:30:56;;;;;;;0.10;0.10;;;;;;;23.03;55.69;100862.16;5128649;27;20039;-41
2022/08/04 01:33:24;;;;;;;0.10;0.10;;;;;;;23.03;55.60;100859.38;5126280;27;20524;-40
2022/08/04 01:35:55;;;;;;;0.10;0.10;;;;;;;23.02;55.71;100852.19;5138610;27;20493;-41
2022/08/04 01:38:27;;;;;;;0.10;0.10;;;;;;;23.03;55.68;100856.59;5121841;27;20082;-42
2022/08/04 01:40:56;;;;;;;0.10;0.10;;;;;;;23.04;55.69;100860.19;5138772;27;20090;-41
2022/08/04 01:43:22;;;;;;;0.10;0.10;;;;;;;23.04;55.86;100855.47;5121463;27;20177;-41
2022/08/04 01:45:50;;;;;;;0.10;0.10;;;;;;;23.03;55.69;100851.06;5117968;27;20077;-42
2022/08/04 01:48:17;;;;;;;0.10;0.10;;;;;;;23.04;55.68;100851.88;5144796;27;20141;-42
2022/08/04 01:50:43;;;;;;;0.10;0.10;;;;;;;23.03;55.77;100859.38;5139660;27;20135;-41
2022/08/04 01:53:09;;;;;;;0.10;0.10;;;;;;;23.04;55.62;100860.19;5142930;27;20093;-41
2022/08/04 01:55:36;;;;;;;0.10;0.10;;;;;;;23.03;55.68;100855.78;5141130;27;20051;-41
2022/08/04 01:58:20;;;;;;;0.10;0.10;;;;;;;23.04;55.75;100854.66;5144193;27;20465;-41
2022/08/04 02:00:56;;;;;;;0.10;0.10;;;;;;;23.02;55.65;100852.19;5140731;27;20065;-41
2022/08/04 02:03:22;;;;;;;0.10;0.10;;;;;;;23.04;55.70;100857.41;5122990;27;20065;-40
2022/08/04 02:09:11;;;;;;;0.10;0.10;;;;;;;23.04;55.71;100846.31;5164564;27;20719;-39
2022/08/04 02:11:38;;;;;;;0.10;0.10;;;;;;;23.04;55.74;100846.31;5160048;27;20133;-39
2022/08/04 02:14:39;;;;;;;0.10;0.10;;;;;;;23.03;55.71;100839.13;5165272;27;20074;-39
2022/08/04 02:17:01;;;;;;;0.10;0.10;;;;;;;23.03;55.60;100842.72;5146513;27;20074;-39
2022/08/04 02:19:32;;;;;;;0.10;0.10;;;;;;;23.03;55.82;100842.72;5162625;27;20129;-39
2022/08/04 02:22:16;;;;;;;0.10;0.10;;;;;;;23.03;55.80;100839.13;5122373;27;20183;-37
2022/08/04 02:24:45;;;;;;;0.10;0.10;;;;;;;23.03;55.68;100839.94;5166733;27;20126;-39
2022/08/04 02:27:13;;;;;;;0.10;0.10;;;;;;;23.02;55.73;100841.06;5162690;27;20194;-37
2022/08/04 02:29:45;;;;;;;0.10;0.10;;;;;;;23.04;55.68;100840.75;5141671;27;20053;-38
2022/08/04 02:32:21;;;;;;;0.10;0.10;;;;;;;23.02;55.73;100835.53;5163615;27;20317;-40
2022/08/04 02:34:53;;;;;;;0.10;0.10;;;;;;;23.03;55.70;100841.91;5162481;27;20077;-39
2022/08/04 02:37:20;;;;;;;0.10;0.10;;;;;;;23.03;55.66;100833.56;5145620;27;20461;-39
2022/08/04 02:39:51;;;;;;;0.10;0.10;;;;;;;23.03;55.69;100845.50;5145051;27;20757;-37
2022/08/04 02:42:18;;;;;;;0.10;0.10;;;;;;;23.03;55.86;100837.16;5165687;27;20058;-37
2022/08/04 02:44:49;;;;;;;0.10;0.10;;;;;;;23.03;55.82;100834.38;5163215;27;20042;-39
2022/08/04 02:47:16;;;;;;;0.10;0.10;;;;;;;23.04;55.72;100840.75;5157749;27;20179;-39
2022/08/04 02:49:44;;;;;;;0.10;0.10;;;;;;;23.04;55.70;100836.03;5129061;27;20144;-38
2022/08/04 02:52:11;;;;;;;0.10;0.10;;;;;;;23.04;55.84;100832.41;5142467;27;20069;-39
2022/08/04 02:54:39;;;;;;;0.10;0.10;;;;;;;23.03;55.63;100826.06;5166021;27;20125;-39
2022/08/04 02:57:09;;;;;;;;;;;;;;;23.04;55.72;100821.31;5141880;27;20074;-38
2022/08/04 03:00:07;;;;;;;0.10;0.10;;;;;;;23.03;55.81;100814.13;5146464;27;20010;-39
2022/08/04 03:02:57;;;;;;;0.10;0.10;;;;;;;23.03;55.70;100814.94;5146374;27;20130;-39
2022/08/04 03:05:31;;;;;;;0.10;0.10;;;;;;;23.03;55.77;100811.34;5146411;27;20121;-38
2022/08/04 03:08:37;;;;;;;0.10;0.10;;;;;;;23.03;55.59;100806.59;5158831;27;20045;-39
2022/08/04 03:16:52;;;;;;;0.10;0.10;;;;;;;23.03;55.69;100811.34;5174083;27;20189;-39
2022/08/04 03:19:45;;;;;;;0.10;0.10;;;;;;;23.04;55.70;100816.56;5162711;27;20074;-39
2022/08/04 03:22:42;;;;;;;0.10;0.10;;;;;;;23.03;55.65;100809.38;5144425;27;20126;-39
2022/08/04 03:25:45;;;;;;;0.10;0.10;;;;;;;23.03;55.63;100812.16;5127174;27;20050;-39
2022/08/04 03:28:56;;;;;;;0.10;0.10;;;;;;;23.04;55.69;100807.44;5158413;27;20039;-39
2022/08/04 03:31:44;;;;;;;0.10;0.10;;;;;;;23.03;55.84;100812.16;5143065;27;20525;-39
2022/08/04 03:37:14;;;;;;;0.10;0.10;;;;;;;23.04;55.55;100815.75;5175642;27;20202;-39
2022/08/04 03:39:53;;;;;;;0.10;0.10;;;;;;;23.03;55.65;100809.38;5137445;27;21389;-38
2022/08/04 03:42:58;;;;;;;0.10;0.10;;;;;;;23.03;55.74;100806.59;5151155;27;20043;-39
2022/08/04 03:45:46;;;;;;;0.10;0.10;;;;;;;23.04;55.80;100801.88;5119705;27;20071;-38
2022/08/04 03:48:25;;;;;;;0.10;0.10;;;;;;;23.04;55.74;100801.88;5131952;27;20131;-39
2022/08/04 03:54:22;;;;;;;0.10;0.10;;;;;;;23.03;55.81;100800.22;5116991;27;20126;-39
2022/08/04 04:00:04;;;;;;;0.10;0.10;;;;;;;23.03;55.93;100800.22;5171692;27;20210;-38
2022/08/04 04:02:57;;;;;;;0.10;0.10;;;;;;;23.04;55.65;100797.13;5148489;27;20137;-39
2022/08/04 04:05:54;;;;;;;0.10;0.10;;;;;;;23.04;55.72;100796.31;5140990;27;20171;-39
2022/08/04 04:09:07;;;;;;;0.10;0.10;;;;;;;23.03;55.66;100791.91;5136460;27;20492;-39
2022/08/04 04:12:13;;;;;;;0.10;0.10;;;;;;;23.03;55.67;100797.47;5130445;27;20750;-39
2022/08/04 04:14:59;;;;;;;;;;;;;;;23.02;55.63;100804.97;5135382;27;20084;-38
2022/08/04 04:20:57;;;;;;;0.10;0.10;;;;;;;23.02;55.70;100807.75;5166597;27;20116;-39
2022/08/04 04:23:45;;;;;;;0.10;0.10;;;;;;;23.03;55.77;100803.84;5121702;27;20067;-39
2022/08/04 04:26:50;;;;;;;0.10;0.10;;;;;;;23.02;55.69;100804.97;5145359;27;20091;-39
2022/08/04 04:29:43;;;;;;;0.10;0.10;;;;;;;23.04;55.70;100805.47;5120651;27;20457;-39
2022/08/04 04:32:48;;;;;;;0.10;0.10;;;;;;;23.04;55.70;100810.22;5134649;27;20138;-37
2022/08/04 04:35:36;;;;;;;0.10;0.10;;;;;;;23.03;55.63;100814.94;5130370;27;20070;-38
2022/08/04 04:38:06;;;;;;;;;;;;;;;23.03;55.75;100817.72;5109605;27;20452;-39
2022/08/04 04:40:48;;;;;;;0.10;0.10;;;;;;;23.03;55.61;100811.34;5126763;27;20411;-38
2022/08/04 04:43:29;;;;;;;0.10;0.10;;;;;;;23.02;55.74;100812.47;5141876;27;20133;-39
2022/08/04 04:46:24;;;;;;;0.10;0.10;;;;;;;23.03;55.88;100819.69;5130521;27;20100;-39
2022/08/04 04:49:00;;;;;;;0.10;0.10;;;;;;;23.03;55.75;100817.72;5141600;27;20077;-38
2022/08/04 04:51:50;;;;;;;0.10;0.10;;;;;;;23.03;55.70;100817.72;5143204;27;20467;-37
2022/08/04 04:54:25;;;;;;;0.10;0.10;;;;;;;23.03;55.66;100812.16;5126197;27;20082;-38
2022/08/04 04:57:18;;;;;;;0.10;0.10;;;;;;;23.02;55.52;100810.53;5124061;27;20075;-39
2022/08/04 04:59:52;;;;;;;0.10;0.10;;;;;;;23.03;55.67;100817.72;5131565;27;20086;-37
2022/08/04 05:02:42;;;;;;;0.10;0.10;;;;;;;23.03;55.57;100814.94;5126807;27;20074;-39
2022/08/04 05:08:15;;;;;;;0.10;0.10;;;;;;;23.04;55.58;100819.34;5161626;27;20198;-40
2022/08/04 05:11:32;;;;;;;0.10;0.10;;;;;;;23.03;55.62;100820.50;5116194;27;20046;-39
2022/08/04 05:14:00;;;;;;;0.10;0.10;;;;;;;23.03;55.77;100814.94;5144460;27;20568;-39
2022/08/04 05:16:50;;;;;;;0.10;0.10;;;;;;;23.04;55.70;100818.53;5099740;27;20113;-39
2022/08/04 05:19:42;;;;;;;0.10;0.10;;;;;;;23.04;55.68;100824.09;5145474;27;20077;-39
2022/08/04 05:22:14;;;;;;;0.10;0.10;;;;;;;23.03;55.69;100823.28;5132756;27;20508;-39
2022/08/04 05:24:43;;;;;;;0.10;0.10;;;;;;;23.04;55.65;100829.66;5124304;27;20049;-39
2022/08/04 05:27:14;;;;;;;0.10;0.10;;;;;;;23.03;55.62;100837.16;5141587;27;20864;-39
2022/08/04 05:29:47;;;;;;;0.10;0.10;;;;;;;23.03;55.74;100830.78;5124825;27;20066;-39
2022/08/04 05:32:15;;;;;;;0.10;0.10;;;;;;;23.04;55.67;100838.78;5144772;27;20057;-39
2022/08/04 05:34:46;;;;;;;0.10;0.10;;;;;;;23.03;55.69;100833.56;5145241;27;20478;-39
2022/08/04 05:37:15;;;;;;;0.10;0.10;;;;;;;23.03;55.63;100831.59;5145304;27;20071;-39
2022/08/04 05:39:43;;;;;;;0.10;0.10;;;;;;;23.04;55.66;100829.66;5124651;27;20862;-39
2022/08/04 05:42:13;;;;;;;0.10;0.10;;;;;;;23.03;55.75;100823.28;5146819;27;20066;-39
2022/08/04 05:44:39;;;;;;;0.10;0.10;;;;;;;23.03;55.75;100826.06;5143408;27;20082;-38
2022/08/04 05:47:05;;;;;;;0.10;0.10;;;;;;;23.03;55.69;100826.06;5143523;27;20421;-39
2022/08/04 05:49:32;;;;;;;0.10;0.10;;;;;;;23.02;55.67;100821.63;5143779;27;20083;-38
2022/08/04 05:52:00;;;;;;;0.10;0.10;;;;;;;23.05;55.67;100820.19;5146050;27;20093;-39
2022/08/04 05:54:27;;;;;;;0.10;0.10;;;;;;;23.06;55.52;100821.00;5142897;27;20035;-40
2022/08/04 05:56:53;;;;;;;0.10;0.10;;;;;;;23.04;55.55;100819.34;5144455;27;20131;-39
2022/08/04 05:59:19;;;;;;;0.10;0.10;;;;;;;23.04;55.60;100815.75;5125663;27;20623;-41
2022/08/04 06:01:46;;;;;;;0.10;0.10;;;;;;;23.04;55.70;100816.56;5126089;27;20445;-39
2022/08/04 06:04:27;;;;;;;0.10;0.10;;;;;;;23.04;55.43;100822.13;5127127;27;20035;-39
2022/08/04 06:06:53;;;;;;;0.10;0.10;;;;;;;23.04;55.63;100822.13;5143423;27;20074;-40
2022/08/04 06:09:18;;;;;;;0.10;0.10;;;;;;;23.04;55.63;100811.03;5140465;27;20532;-40
2022/08/04 06:11:45;;;;;;;0.10;0.10;;;;;;;23.05;55.77;100817.41;5143945;27;20073;-40
2022/08/04 06:14:32;;;;;;;0.10;0.10;;;;;;;23.05;55.56;100814.63;5144623;27;20117;-40
2022/08/04 06:16:59;;;;;;;0.10;0.10;;;;;;;23.06;55.70;100818.22;5139885;27;20074;-41
2022/08/04 06:19:26;;;;;;;0.10;0.10;;;;;;;23.06;55.52;100812.66;5130306;27;20051;-39
2022/08/04 06:22:12;;;;;;;0.10;0.10;;;;;;;23.06;55.75;100809.88;5113011;28;20047;-40
2022/08/04 06:24:38;;;;;;;0.10;0.10;;;;;;;23.04;55.79;100811.03;5132022;28;20071;-40
2022/08/04 06:27:05;;;;;;;0.10;0.10;;;;;;;23.06;55.69;100815.44;5111408;28;20067;-40
2022/08/04 06:29:40;;;;;;;0.10;0.10;;;;;;;23.06;55.65;100813.50;5127441;27;20125;-40
2022/08/04 06:32:55;;;;;;;0.10;0.10;;;;;;;23.05;55.53;100814.63;5129231;27;20043;-41
2022/08/04 06:35:07;;;;;;;0.10;0.10;;;;;;;23.05;55.71;100817.41;5113859;28;20050;-40
2022/08/04 06:37:35;;;;;;;0.10;0.10;;;;;;;23.06;55.63;100819.06;5112438;28;20070;-39
2022/08/04 06:40:11;;;;;;;0.10;0.10;;;;;;;23.07;55.67;100814.34;5096822;28;20183;-39
2022/08/04 06:42:56;;;;;;;;;;;;;;;23.07;55.60;100811.56;5113634;28;20070;-43
2022/08/04 06:45:23;;;;;;;0.10;0.10;;;;;;;23.04;55.67;100801.88;5129044;27;20345;-40
2022/08/04 06:47:48;;;;;;;0.10;0.10;;;;;;;23.07;55.37;100806.00;5112151;28;20138;-40
2022/08/04 06:50:15;;;;;;;0.10;0.10;;;;;;;23.05;55.73;100814.63;5128562;27;20047;-39
2022/08/04 06:53:00;;;;;;;0.10;0.10;;;;;;;23.05;55.59;100811.84;5117786;27;20540;-40
2022/08/04 06:55:26;;;;;;;0.10;0.10;;;;;;;23.05;55.68;100811.84;5129036;27;20039;-41
2022/08/04 06:57:53;;;;;;;0.10;0.10;;;;;;;23.06;55.66;100809.88;5130841;27;20173;-39
2022/08/04 07:00:19;;;;;;;0.10;0.10;;;;;;;23.06;55.74;100824.63;5127584;27;20113;-40
2022/08/04 07:02:49;;;;;;;0.10;0.10;;;;;;;23.07;57.71;100819.88;5108854;28;20055;-42
2022/08/04 07:05:15;;;;;;;0.10;0.10;;;;;;;23.06;57.77;100818.22;5110753;28;20137;-37
2022/08/04 07:07:42;;;;;;;0.10;0.10;;;;;;;23.08;57.80;100815.97;5111009;28;20176;-37
2022/08/04 07:10:24;;;;;;;0.10;0.10;;;;;;;23.01;57.71;100820.00;5110769;28;20546;-38
2022/08/04 07:12:50;;;;;;;0.20;0.20;;;;;;;23.03;57.59;100816.91;5111803;28;20051;-38
2022/08/04 07:15:19;;;;;;;0.10;0.10;;;;;;;23.03;57.74;100816.91;5125731;28;20180;-37
2022/08/04 07:17:45;;;;;;;0.10;0.10;;;;;;;23.01;57.61;100820.00;5128486;27;20142;-37
2022/08/04 07:20:15;;;;;;;0.10;0.10;;;;;;;23.03;57.46;100812.16;5129197;27;20043;-37
2022/08/04 07:23:00;;;;;;;0.10;0.10;;;;;;;23.03;57.55;100805.78;5130906;27;20040;-37
2022/08/04 07:25:26;;;;;;;0.10;0.10;;;;;;;23.02;57.46;100801.38;5128671;27;20105;-37
2022/08/04 07:28:12;;;;;;;0.10;0.10;;;;;;;23.04;57.48;100811.03;5099922;28;20072;-36
2022/08/04 07:30:39;;;;;;;0.10;0.10;;;;;;;23.04;57.67;100808.25;5127411;27;20367;-40
2022/08/04 07:33:05;;;;;;;0.10;0.10;;;;;;;23.03;57.42;100808.56;5128215;27;20113;-38
2022/08/04 07:35:31;;;;;;;0.10;0.10;;;;;;;23.00;57.72;100806.41;5111663;28;20043;-39
2022/08/04 07:38:17;;;;;;;0.10;0.10;;;;;;;22.99;57.59;100821.44;5110673;27;20057;-37
2022/08/04 07:40:43;;;;;;;0.10;0.10;;;;;;;23.00;57.78;100823.06;5127767;28;20134;-37
2022/08/04 07:43:09;;;;;;;0.10;0.10;;;;;;;23.04;57.82;100833.25;5127993;27;20040;-40
2022/08/04 07:45:35;;;;;;;0.10;0.10;;;;;;;23.05;57.48;100825.72;5130033;27;20078;-41
2022/08/04 07:48:02;;;;;;;0.10;0.10;;;;;;;23.03;57.90;100826.06;5125723;27;20074;-38
2022/08/04 07:50:32;;;;;;;0.10;0.10;;;;;;;23.06;57.82;100829.31;5124216;28;20545;-37
2022/08/04 07:52:58;;;;;;;0.10;0.10;;;;;;;23.06;57.40;100821.00;5130122;27;20070;-37
2022/08/04 07:55:45;;;;;;;0.10;0.10;;;;;;;23.04;57.93;100819.34;5115306;27;20096;-38
2022/08/04 07:58:10;;;;;;;0.10;0.10;;;;;;;23.06;58.17;100821.00;5129336;27;20082;-37
2022/08/04 08:00:36;;;;;;;0.20;0.20;;;;;;;23.08;57.77;100815.97;5129770;27;20042;-37
2022/08/04 08:03:02;;;;;;;0.10;0.10;;;;;;;23.06;57.91;100816.28;5125955;28;20062;-36
2022/08/04 08:05:29;;;;;;;0.10;0.10;;;;;;;23.05;57.89;100814.63;5126925;27;20043;-36
2022/08/04 08:07:55;;;;;;;0.10;0.10;;;;;;;23.03;57.77;100814.13;5129445;27;20079;-36
2022/08/04 08:10:22;;;;;;;0.10;0.10;;;;;;;23.04;57.81;100805.47;5128356;27;20151;-36
2022/08/04 08:12:49;;;;;;;0.10;0.10;;;;;;;23.02;57.50;100796.63;5122732;28;20374;-38
2022/08/04 08:15:19;;;;;;;0.10;0.10;;;;;;;23.10;57.87;100797.88;5127627;27;20419;-40
2022/08/04 08:17:45;;;;;;;0.10;0.10;;;;;;;23.10;57.70;100799.81;5108239;27;20484;-38
2022/08/04 08:20:26;;;;;;;0.10;0.10;;;;;;;23.09;57.89;100806.50;5126418;27;20074;-37
2022/08/04 08:22:55;;;;;;;0.10;0.10;;;;;;;23.10;57.75;100808.13;5126758;27;20058;-39
2022/08/04 08:25:21;;;;;;;0.10;0.10;;;;;;;23.08;57.54;100802.06;5131694;27;20323;-36
2022/08/04 08:27:46;;;;;;;0.10;0.10;;;;;;;23.11;57.85;100804.25;5129713;28;20116;-36
2022/08/04 08:30:22;;;;;;;0.10;0.10;;;;;;;23.15;58.17;100808.88;5129849;27;20129;-37
2022/08/04 08:32:48;;;;;;;0.10;0.10;;;;;;;23.12;58.16;100798.38;5129525;27;20067;-37
2022/08/04 08:35:15;;;;;;;0.10;0.10;;;;;;;23.09;58.32;100803.72;5128999;27;20088;-37
2022/08/04 08:37:47;;;;;;;0.10;0.10;;;;;;;23.05;58.41;100800.72;5126380;27;20125;-37
2022/08/04 08:40:29;;;;;;;0.10;0.10;;;;;;;23.03;58.53;100803.84;5124775;27;20176;-37
2022/08/04 08:43:32;;;;;;;0.10;0.10;;;;;;;23.03;58.34;100795.50;5127328;27;20051;-37
2022/08/04 08:46:35;;;;;;;0.10;0.10;;;;;;;23.06;58.38;100796.00;5098069;28;20047;-38
2022/08/04 08:49:43;;;;;;;0.10;0.10;;;;;;;23.02;58.58;100809.72;5124500;28;20047;-36
2022/08/04 08:52:48;;;;;;;0.10;0.10;;;;;;;22.97;58.71;100812.56;5106447;28;20043;-37
2022/08/04 08:55:42;;;;;;;0.20;0.20;;;;;;;22.97;58.50;100807.00;5127981;27;20039;-36
2022/08/04 08:58:28;;;;;;;0.10;0.10;;;;;;;22.99;58.80;100810.31;5111706;28;20109;-37
2022/08/04 09:01:32;;;;;;;0.10;0.10;;;;;;;23.02;58.84;100809.72;5122479;27;20130;-39
2022/08/04 09:04:15;;;;;;;0.10;0.10;;;;;;;23.01;58.83;100810.81;5111966;27;20035;-38
2022/08/04 09:07:02;;;;;;;0.10;0.10;;;;;;;23.10;58.81;100803.44;5125211;27;20104;-41
2022/08/04 09:09:45;;;;;;;0.10;0.10;;;;;;;23.19;58.75;100803.53;5108712;27;20135;-36
2022/08/04 09:12:32;;;;;;;0.10;0.10;;;;;;;23.23;58.47;100812.88;5127666;27;20785;-36
2022/08/04 09:15:07;;;;;;;0.10;0.10;;;;;;;23.11;58.72;100815.34;5127349;27;20074;-38
2022/08/04 09:17:42;;;;;;;0.10;0.10;;;;;;;22.97;59.22;100813.41;5090551;27;20085;-37
2022/08/04 09:20:29;;;;;;;0.10;0.10;;;;;;;22.93;59.58;100817.94;5108659;28;20074;-39
2022/08/04 09:23:06;;;;;;;0.10;0.10;;;;;;;22.89;59.72;100816.88;5112575;28;20103;-36
2022/08/04 09:25:53;;;;;;;0.10;0.10;;;;;;;22.90;59.34;100821.31;5126673;27;20127;-38
2022/08/04 09:28:23;;;;;;;0.10;0.10;;;;;;;22.91;59.44;100813.81;5111824;28;20066;-38
2022/08/04 09:31:13;;;;;;;0.10;0.10;;;;;;;23.01;59.41;100813.59;5098232;28;20050;-38
2022/08/04 09:34:05;;;;;;;0.10;0.10;;;;;;;23.00;59.57;100810.00;5106764;27;20079;-40
2022/08/04 09:36:36;;;;;;;0.10;0.10;;;;;;;22.98;59.51;100812.28;5110759;27;20121;-43
2022/08/04 09:39:08;;;;;;;0.10;0.10;;;;;;;23.01;59.46;100824.69;5120379;27;20098;-43
2022/08/04 09:41:41;;;;;;;0.10;0.10;;;;;;;23.04;59.68;100827.69;5125883;27;20047;-41
2022/08/04 09:44:57;;;;;;;0.10;0.10;;;;;;;23.16;59.59;100818.03;5125738;27;20039;-41
2022/08/04 09:47:58;;;;;;;0.15;0.15;;;;;;;23.20;59.01;100811.53;5100233;28;20486;-41
2022/08/04 09:50:34;;;;;;;0.10;0.10;;;;;;;23.11;59.25;100827.28;5105622;28;20137;-42
2022/08/04 09:53:40;;;;;;;0.10;0.10;;;;;;;23.17;59.18;100816.88;5109529;28;20146;-42
2022/08/04 09:56:09;;;;;;;0.10;0.10;;;;;;;23.12;59.30;100825.31;5114000;28;20051;-43
2022/08/04 09:59:14;;;;;;;0.10;0.10;;;;;;;23.05;59.26;100825.72;5131208;27;20050;-41
2022/08/04 10:01:40;;;;;;;0.10;0.10;;;;;;;23.12;59.18;100833.66;5120617;27;20130;-42
2022/08/04 10:04:10;;;;;;;0.10;0.10;;;;;;;23.14;59.21;100840.53;5129779;27;20677;-43
2022/08/04 10:09:55;;;;;;;0.10;0.10;;;;;;;23.17;58.83;100839.91;5159146;27;20218;-42
2022/08/04 10:18:18;;;;;;;0.10;0.10;;;;;;;23.17;58.94;100839.91;5173287;27;20189;-41
2022/08/04 10:21:01;;;;;;;0.10;0.10;;;;;;;23.13;59.02;100847.22;5128312;27;20093;-42
2022/08/04 10:23:47;;;;;;;0.10;0.10;;;;;;;23.16;58.98;100843.03;5157994;27;20054;-41
2022/08/04 10:26:32;;;;;;;0.10;0.10;;;;;;;23.14;58.98;100854.41;5139360;27;20053;-41
2022/08/04 10:29:05;;;;;;;0.10;0.10;;;;;;;23.09;58.96;100848.97;5142432;27;20137;-42
2022/08/04 10:31:35;;;;;;;0.10;0.10;;;;;;;23.11;58.92;100851.47;5156659;27;20135;-41
2022/08/04 10:34:10;;;;;;;0.10;0.10;;;;;;;23.14;58.76;100846.09;5159033;27;20085;-43
2022/08/04 10:36:44;;;;;;;0.10;0.10;;;;;;;23.15;58.84;100847.75;5156265;27;20134;-42
2022/08/04 10:39:13;;;;;;;0.10;0.10;;;;;;;23.14;58.84;100859.97;5135158;27;20075;-42
2022/08/04 10:42:21;;;;;;;0.10;0.10;;;;;;;23.07;59.04;100858.78;5128061;27;20050;-42
2022/08/04 10:44:54;;;;;;;0.10;0.10;;;;;;;23.07;59.20;100859.59;5123860;27;20115;-41
2022/08/04 10:47:25;;;;;;;0.10;0.10;;;;;;;23.13;58.93;100860.31;5134798;27;20332;-41
2022/08/04 10:49:55;;;;;;;0.35;0.20;;;;;;;23.17;58.60;100858.56;5137314;27;20130;-42
2022/08/04 10:52:47;;;;;;;0.10;0.10;;;;;;;23.18;58.67;100858.22;5141640;27;20069;-41
2022/08/04 10:55:17;;;;;;;0.10;0.10;;;;;;;23.17;58.93;100864.94;5138051;27;20070;-41
2022/08/04 10:57:48;;;;;;;0.10;0.10;;;;;;;23.12;59.13;100858.66;5136110;27;20039;-41
2022/08/04 11:00:20;;;;;;;0.10;0.10;;;;;;;23.11;59.11;100863.41;5138945;27;20131;-41
2022/08/04 11:02:58;;;;;;;0.10;0.10;;;;;;;23.10;59.18;100850.66;5159621;27;20077;-42
2022/08/04 11:05:45;;;;;;;0.10;0.10;;;;;;;23.08;58.98;100860.41;5121998;27;20086;-42
2022/08/04 11:08:15;;;;;;;0.15;0.15;;;;;;;23.15;58.10;100853.31;5122193;27;20086;-41
2022/08/04 11:10:58;;;;;;;0.10;0.10;;;;;;;23.20;58.11;100867.09;5155998;27;20035;-39
2022/08/04 11:13:28;;;;;;;0.10;0.10;;;;;;;23.21;58.03;100859.59;5155379;27;20075;-40
2022/08/04 11:15:57;;;;;;;0.10;0.10;;;;;;;23.23;57.88;100868.44;5160357;27;20549;-37
2022/08/04 11:18:34;;;;;;;0.10;0.10;;;;;;;23.23;57.96;100869.25;5156808;27;20126;-40
2022/08/04 11:21:12;;;;;;;0.10;0.10;;;;;;;23.24;57.87;100872.84;5139500;27;20070;-39
2022/08/04 11:23:50;;;;;;;0.10;0.10;;;;;;;23.26;58.05;100873.34;5138667;27;20121;-40
2022/08/04 11:26:21;;;;;;;0.10;0.10;;;;;;;23.26;57.82;100878.91;5153727;27;20514;-41
2022/08/04 11:29:11;;;;;;;0.10;0.10;;;;;;;23.26;57.80;100879.72;5143859;27;20204;-40
2022/08/04 11:31:42;;;;;;;0.10;0.10;;;;;;;23.26;57.78;100888.06;5122037;27;20134;-38
2022/08/04 11:34:18;;;;;;;0.10;0.10;;;;;;;23.27;57.85;100886.13;5129207;27;20537;-42
2022/08/04 11:39:33;;;;;;;0.10;0.10;;;;;;;23.29;57.95;100886.63;5174903;27;20626;-38
2022/08/04 11:42:13;;;;;;;0.10;0.10;;;;;;;23.28;57.56;100883.03;5151007;27;20146;-40
2022/08/04 11:44:59;;;;;;;0.10;0.10;;;;;;;23.28;57.85;100893.34;5136708;27;20122;-40
2022/08/04 11:47:29;;;;;;;0.10;0.10;;;;;;;23.29;57.72;100897.75;5119937;27;20185;-40
2022/08/04 11:50:01;;;;;;;0.10;0.10;;;;;;;23.30;57.83;100899.41;5136262;27;20473;-38
2022/08/04 11:52:28;;;;;;;0.10;0.10;;;;;;;23.30;57.77;100904.94;5121105;27;20078;-38
2022/08/04 11:54:54;;;;;;;0.20;0.20;;;;;;;23.30;57.61;100893.84;5130973;27;20085;-38
2022/08/04 11:57:21;;;;;;;0.10;0.10;;;;;;;23.29;57.53;100894.97;5134732;27;20057;-38
2022/08/04 12:00:04;;;;;;;0.10;0.10;;;;;;;23.30;57.51;100891.06;5136055;27;20054;-40
2022/08/04 12:05:30;;;;;;;0.10;0.10;;;;;;;23.31;57.52;100889.09;5171424;27;20131;-38
2022/08/04 12:08:26;;;;;;;0.10;0.10;;;;;;;23.31;57.58;100887.13;5152748;27;20409;-41
2022/08/04 12:11:11;;;;;;;0.10;0.10;;;;;;;23.31;57.56;100889.91;5139669;27;20043;-39
2022/08/04 12:13:49;;;;;;;0.10;0.10;;;;;;;23.31;57.51;100887.13;5132250;27;20086;-36
2022/08/04 12:16:22;;;;;;;0.10;0.10;;;;;;;23.30;57.45;100891.06;5131323;27;20078;-39
2022/08/04 12:18:57;;;;;;;0.10;0.10;;;;;;;23.29;57.44;100879.13;5153742;27;20050;-40
2022/08/04 12:21:32;;;;;;;;;;;;;;;23.29;57.49;100887.47;5135615;27;20047;-38
2022/08/04 12:24:04;;;;;;;0.10;0.10;;;;;;;23.31;57.46;100897.44;5137898;27;20333;-39
2022/08/04 12:26:35;;;;;;;0.10;0.10;;;;;;;23.31;57.61;100898.25;5133245;27;20131;-39
2022/08/04 12:29:02;;;;;;;0.10;0.10;;;;;;;23.32;57.61;100901.88;5134120;27;20086;-38
2022/08/04 12:31:47;;;;;;;0.10;0.10;;;;;;;23.32;57.34;100910.22;5154652;27;20104;-38
2022/08/04 12:36:55;;;;;;;0.10;0.10;;;;;;;23.31;57.39;100917.72;5165694;27;20202;-39
2022/08/04 12:39:22;;;;;;;0.10;0.10;;;;;;;23.31;57.45;100920.47;5164175;27;20053;-40
2022/08/04 12:42:16;;;;;;;0.10;0.10;;;;;;;23.32;57.44;100924.13;5161793;27;20038;-39
2022/08/04 12:44:52;;;;;;;0.10;0.10;;;;;;;23.32;57.41;100924.13;5148433;27;20046;-38
2022/08/04 12:47:22;;;;;;;0.10;0.10;;;;;;;23.32;57.44;100921.34;5139279;27;20173;-40
2022/08/04 12:49:58;;;;;;;0.10;0.10;;;;;;;23.32;57.35;100910.22;5166229;27;20046;-40
2022/08/04 12:52:29;;;;;;;0.10;0.10;;;;;;;23.31;57.45;100914.09;5160468;27;20050;-39
2022/08/04 12:55:16;;;;;;;0.10;0.10;;;;;;;23.32;57.50;100904.66;5145806;27;20039;-40